createdAt,value
2022-08-14T00:02:22.519Z,21.60
2022-08-14T00:04:54.561Z,21.60
2022-08-14T00:07:24.539Z,21.50
2022-08-14T00:10:01.502Z,21.50
2022-08-14T00:12:56.941Z,21.50
2022-08-14T00:15:43.784Z,21.50
2022-08-14T00:18:30.847Z,21.50
2022-08-14T00:21:11.162Z,21.40
2022-08-14T00:23:41.930Z,21.30
2022-08-14T00:26:21.760Z,21.30
2022-08-14T00:28:56.029Z,21.30
2022-08-14T00:31:44.371Z,21.30
2022-08-14T00:34:35.557Z,21.20
2022-08-14T00:37:08.480Z,21.20
2022-08-14T00:39:39.119Z,21.10
2022-08-14T00:42:21.166Z,21.10
2022-08-14T00:44:52.128Z,21.10
2022-08-14T00:47:26.807Z,21.00
2022-08-14T00:50:00.104Z,21.00
2022-08-14T00:52:32.431Z,21.00
2022-08-14T00:55:02.920Z,21.00
2022-08-14T00:57:35.414Z,21.00
2022-08-14T01:00:18.082Z,21.00
2022-08-14T01:02:59.668Z,21.00
2022-08-14T01:05:50.700Z,20.90
2022-08-14T01:08:51.181Z,20.90
2022-08-14T01:11:19.498Z,20.90
2022-08-14T01:13:50.804Z,20.90
2022-08-14T01:16:27.939Z,20.90
2022-08-14T01:19:10.676Z,20.90
2022-08-14T01:21:46.993Z,20.90
2022-08-14T01:24:30.685Z,20.90
2022-08-14T01:27:05.591Z,20.90
2022-08-14T01:29:52.778Z,20.90
2022-08-14T01:32:37.967Z,20.90
2022-08-14T01:35:18.504Z,20.90
2022-08-14T01:38:06.148Z,20.90
2022-08-14T01:40:41.002Z,21.00
2022-08-14T01:43:18.781Z,21.00
2022-08-14T01:45:57.838Z,21.00
2022-08-14T01:48:37.892Z,20.90
2022-08-14T01:51:19.211Z,20.90
2022-08-14T01:53:55.770Z,20.90
2022-08-14T01:56:37.382Z,20.90
2022-08-14T01:59:18.140Z,20.90
2022-08-14T02:01:58.107Z,21.00
2022-08-14T02:04:54.547Z,20.90
2022-08-14T02:07:44.948Z,20.90
2022-08-14T02:10:16.170Z,20.80
2022-08-14T02:12:56.901Z,20.80
2022-08-14T02:15:27.843Z,20.80
2022-08-14T02:17:59.037Z,20.80
2022-08-14T02:20:29.129Z,20.80
2022-08-14T02:22:59.244Z,20.80
2022-08-14T02:25:33.662Z,20.80
2022-08-14T02:28:24.968Z,20.80
2022-08-14T02:30:56.361Z,20.70
2022-08-14T02:33:29.397Z,20.70
2022-08-14T02:36:44.146Z,20.80
2022-08-14T02:38:54.021Z,20.80
2022-08-14T02:41:28.810Z,20.80
2022-08-14T02:44:01.023Z,20.80
2022-08-14T02:46:32.388Z,20.70
2022-08-14T02:49:06.373Z,20.70
2022-08-14T02:51:37.321Z,20.60
2022-08-14T02:54:09.758Z,20.60
2022-08-14T02:57:16.417Z,20.70
2022-08-14T02:59:43.183Z,20.60
2022-08-14T03:02:33.439Z,20.60
2022-08-14T03:05:03.773Z,20.60
2022-08-14T03:07:34.004Z,20.60
2022-08-14T03:10:26.561Z,20.60
2022-08-14T03:12:57.453Z,20.60
2022-08-14T03:15:27.386Z,20.60
2022-08-14T03:17:58.511Z,20.60
2022-08-14T03:20:29.468Z,20.60
2022-08-14T03:23:03.143Z,20.50
2022-08-14T03:25:37.852Z,20.60
2022-08-14T03:28:14.947Z,20.60
2022-08-14T03:31:02.407Z,20.70
2022-08-14T03:33:37.948Z,20.60
2022-08-14T03:37:51.008Z,20.60
2022-08-14T03:39:13.230Z,20.60
2022-08-14T03:41:49.010Z,20.70
2022-08-14T03:45:27.701Z,20.60
2022-08-14T03:47:15.427Z,20.60
2022-08-14T03:49:49.616Z,20.60
2022-08-14T03:52:55.805Z,20.60
2022-08-14T03:55:12.292Z,20.60
2022-08-14T03:57:42.770Z,20.60
2022-08-14T04:00:42.949Z,20.50
2022-08-14T04:03:08.927Z,20.60
2022-08-14T04:05:48.892Z,20.50
2022-08-14T04:08:30.073Z,20.50
2022-08-14T04:11:07.804Z,20.40
2022-08-14T04:13:41.226Z,20.50
2022-08-14T04:16:15.299Z,20.40
2022-08-14T04:18:47.208Z,20.50
2022-08-14T04:21:19.895Z,20.40
2022-08-14T04:23:57.858Z,20.40
2022-08-14T04:26:38.802Z,20.40
2022-08-14T04:29:15.368Z,20.40
2022-08-14T04:33:10.369Z,20.40
2022-08-14T04:34:42.954Z,20.40
2022-08-14T04:37:36.505Z,20.40
2022-08-14T04:40:22.674Z,20.40
2022-08-14T04:43:14.264Z,20.40
2022-08-14T04:45:51.475Z,20.40
2022-08-14T04:48:39.292Z,20.40
2022-08-14T04:51:15.347Z,20.40
2022-08-14T04:53:47.366Z,20.50
2022-08-14T04:56:31.378Z,20.50
2022-08-14T04:59:10.052Z,20.50
2022-08-14T05:01:48.644Z,20.60
2022-08-14T05:04:25.257Z,20.60
2022-08-14T05:06:56.970Z,20.60
2022-08-14T05:09:28.755Z,20.60
2022-08-14T05:13:12.841Z,20.70
2022-08-14T05:14:55.217Z,20.80
2022-08-14T05:17:32.214Z,20.80
2022-08-14T05:21:04.859Z,20.90
2022-08-14T05:23:08.221Z,21.00
2022-08-14T05:25:41.436Z,21.00
2022-08-14T05:28:16.254Z,21.20
2022-08-14T05:30:47.171Z,21.20
2022-08-14T05:33:18.661Z,21.30
2022-08-14T05:35:51.951Z,21.40
2022-08-14T05:38:30.978Z,21.40
2022-08-14T05:41:02.657Z,21.50
2022-08-14T05:43:41.307Z,21.60
2022-08-14T05:46:15.311Z,21.70
2022-08-14T05:48:46.731Z,21.80
2022-08-14T05:51:20.126Z,22.00
2022-08-14T05:53:56.986Z,22.10
2022-08-14T05:56:33.104Z,22.10
2022-08-14T05:59:07.898Z,22.10
2022-08-14T06:01:38.504Z,22.10
2022-08-14T06:04:08.795Z,22.10
2022-08-14T06:06:41.924Z,22.10
2022-08-14T06:09:13.380Z,22.10
2022-08-14T06:11:43.926Z,22.20
2022-08-14T06:14:23.974Z,22.30
2022-08-14T06:16:54.615Z,22.30
2022-08-14T06:19:25.108Z,22.30
2022-08-14T06:21:59.273Z,22.40
2022-08-14T06:24:34.686Z,22.40
2022-08-14T06:27:10.077Z,22.40
2022-08-14T06:29:41.541Z,22.50
2022-08-14T06:32:38.114Z,22.60
2022-08-14T06:35:13.326Z,22.80
2022-08-14T06:37:50.948Z,22.80
2022-08-14T06:40:27.220Z,22.90
2022-08-14T06:43:03.153Z,23.00
2022-08-14T06:45:34.535Z,23.00
2022-08-14T06:48:12.665Z,23.10
2022-08-14T06:50:43.895Z,23.10
2022-08-14T06:53:20.069Z,23.10
2022-08-14T06:55:58.094Z,23.30
2022-08-14T06:58:31.413Z,23.40
2022-08-14T07:01:15.517Z,23.50
2022-08-14T07:04:23.183Z,23.80
2022-08-14T07:06:59.341Z,24.10
2022-08-14T07:09:40.461Z,24.30
2022-08-14T07:12:54.976Z,24.40
2022-08-14T07:15:12.543Z,24.30
2022-08-14T07:17:52.295Z,24.60
2022-08-14T07:20:30.724Z,24.70
2022-08-14T07:23:07.385Z,24.80
2022-08-14T07:25:43.786Z,25.00
2022-08-14T07:28:21.068Z,25.10
2022-08-14T07:30:52.149Z,25.00
2022-08-14T07:33:24.585Z,24.90
2022-08-14T07:38:22.864Z,25.20
2022-08-14T07:40:54.459Z,25.40
2022-08-14T07:43:26.813Z,25.50
2022-08-14T07:45:58.194Z,25.60
2022-08-14T07:48:30.829Z,25.80
2022-08-14T07:51:09.139Z,25.90
2022-08-14T07:53:44.681Z,26.10
2022-08-14T07:56:44.446Z,26.10
2022-08-14T07:59:09.123Z,26.20
2022-08-14T08:01:39.963Z,26.20
2022-08-14T08:04:27.460Z,26.20
2022-08-14T08:06:58.658Z,26.30
2022-08-14T08:09:34.226Z,26.30
2022-08-14T08:12:09.303Z,26.50
2022-08-14T08:14:56.714Z,26.50
2022-08-14T08:17:42.776Z,26.60
2022-08-14T08:20:27.446Z,26.70
2022-08-14T08:23:00.359Z,26.90
2022-08-14T08:25:41.100Z,27.10
2022-08-14T08:28:25.210Z,26.80
2022-08-14T08:30:59.971Z,26.90
2022-08-14T08:33:37.206Z,27.10
2022-08-14T08:36:12.609Z,27.30
2022-08-14T08:39:15.015Z,27.30
2022-08-14T08:41:49.343Z,27.50
2022-08-14T08:44:32.927Z,27.70
2022-08-14T08:47:06.682Z,27.60
2022-08-14T08:49:52.771Z,27.50
2022-08-14T08:52:31.742Z,27.60
2022-08-14T08:55:04.990Z,27.80
2022-08-14T08:57:40.525Z,28.00
2022-08-14T09:00:25.270Z,28.00
2022-08-14T09:03:04.168Z,28.30
2022-08-14T09:05:37.268Z,28.30
2022-08-14T09:08:30.357Z,28.10
2022-08-14T09:11:02.371Z,28.00
2022-08-14T09:13:35.417Z,28.00
2022-08-14T09:16:18.815Z,28.00
2022-08-14T09:18:50.482Z,28.00
2022-08-14T09:21:31.182Z,28.00
2022-08-14T09:24:30.183Z,27.90
2022-08-14T09:26:53.190Z,27.70
2022-08-14T09:29:28.835Z,27.70
2022-08-14T09:32:03.816Z,27.70
2022-08-14T09:35:08.526Z,27.80
2022-08-14T09:37:56.272Z,28.00
2022-08-14T09:40:42.083Z,28.10
2022-08-14T09:43:30.402Z,28.20
2022-08-14T09:46:04.235Z,28.30
2022-08-14T09:48:35.163Z,28.40
2022-08-14T09:54:19.095Z,28.70
2022-08-14T09:56:56.930Z,29.00
2022-08-14T09:59:33.720Z,29.10
2022-08-14T10:02:27.812Z,29.00
2022-08-14T10:05:10.231Z,28.70
2022-08-14T10:07:53.373Z,28.70
2022-08-14T10:10:34.339Z,29.00
2022-08-14T10:13:06.942Z,29.10
2022-08-14T10:15:49.751Z,29.20
2022-08-14T10:18:31.655Z,29.30
2022-08-14T10:21:09.487Z,29.20
2022-08-14T10:23:46.283Z,29.20
2022-08-14T10:26:22.652Z,29.10
2022-08-14T10:29:18.098Z,29.00
2022-08-14T10:31:47.750Z,29.00
2022-08-14T10:34:29.048Z,28.80
2022-08-14T10:37:14.516Z,28.70
2022-08-14T10:40:01.404Z,28.70
2022-08-14T10:42:39.816Z,28.50
2022-08-14T10:45:23.249Z,28.70
2022-08-14T10:48:07.061Z,28.80
2022-08-14T10:50:51.745Z,28.80
2022-08-14T10:53:35.301Z,29.00
2022-08-14T10:56:21.178Z,29.10
2022-08-14T10:59:05.925Z,29.10
2022-08-14T11:01:41.466Z,29.20
2022-08-14T11:04:30.556Z,29.20
2022-08-14T11:07:05.906Z,29.20
2022-08-14T11:09:37.132Z,29.00
2022-08-14T11:12:34.903Z,29.10
2022-08-14T11:15:03.460Z,29.40
2022-08-14T11:17:36.325Z,29.30
2022-08-14T11:20:13.779Z,29.20
2022-08-14T11:22:55.915Z,29.30
2022-08-14T11:25:43.533Z,29.40
2022-08-14T11:28:19.112Z,29.40
2022-08-14T11:30:53.686Z,29.20
2022-08-14T11:33:32.508Z,29.20
2022-08-14T11:36:18.124Z,29.60
2022-08-14T11:38:51.882Z,29.90
2022-08-14T11:41:27.237Z,29.80
2022-08-14T11:44:00.061Z,29.60
2022-08-14T11:46:37.837Z,29.60
2022-08-14T11:49:09.669Z,29.60
2022-08-14T11:51:53.940Z,29.60
2022-08-14T11:54:34.543Z,29.70
2022-08-14T11:57:06.976Z,29.70
2022-08-14T11:59:38.417Z,29.90
2022-08-14T12:03:01.836Z,29.80
2022-08-14T12:05:10.851Z,29.60
2022-08-14T12:07:52.923Z,29.70
2022-08-14T12:10:40.977Z,30.00
2022-08-14T12:13:19.275Z,30.00
2022-08-14T12:16:06.479Z,29.60
2022-08-14T12:18:49.876Z,29.60
2022-08-14T12:21:23.989Z,29.80
2022-08-14T12:24:08.448Z,29.90
2022-08-14T12:26:41.997Z,29.70
2022-08-14T12:29:16.319Z,29.70
2022-08-14T12:31:47.496Z,29.90
2022-08-14T12:34:24.276Z,30.00
2022-08-14T12:37:07.171Z,29.90
2022-08-14T12:39:40.129Z,29.90
2022-08-14T12:42:34.552Z,30.00
2022-08-14T12:45:08.854Z,30.00
2022-08-14T12:47:39.398Z,30.00
2022-08-14T12:50:11.574Z,30.00
2022-08-14T12:52:58.764Z,29.90
2022-08-14T12:56:18.390Z,29.80
2022-08-14T12:58:50.011Z,30.00
2022-08-14T13:01:26.148Z,29.90
2022-08-14T13:04:10.183Z,29.90
2022-08-14T13:06:44.395Z,30.10
2022-08-14T13:09:17.648Z,30.10
2022-08-14T13:11:58.390Z,30.10
2022-08-14T13:14:34.377Z,30.20
2022-08-14T13:17:05.833Z,30.10
2022-08-14T13:19:40.788Z,30.20
2022-08-14T13:22:29.204Z,30.30
2022-08-14T13:25:05.515Z,30.20
2022-08-14T13:27:39.506Z,30.30
2022-08-14T13:30:23.443Z,30.00
2022-08-14T13:32:57.757Z,30.10
2022-08-14T13:35:29.855Z,30.10
2022-08-14T13:38:00.379Z,30.20
2022-08-14T13:40:31.002Z,30.30
2022-08-14T13:43:02.171Z,30.40
2022-08-14T13:46:00.623Z,30.30
2022-08-14T13:48:33.308Z,30.30
2022-08-14T13:51:11.157Z,30.40
2022-08-14T13:54:08.289Z,30.50
2022-08-14T13:56:42.950Z,30.40
2022-08-14T13:59:20.174Z,30.40
2022-08-14T14:02:08.282Z,30.50
2022-08-14T14:04:46.235Z,30.50
2022-08-14T14:07:24.605Z,30.50
2022-08-14T14:10:06.895Z,30.50
2022-08-14T14:12:41.357Z,30.50
2022-08-14T14:15:14.753Z,30.50
2022-08-14T14:17:51.203Z,30.60
2022-08-14T14:20:35.607Z,30.60
2022-08-14T14:23:12.098Z,30.50
2022-08-14T14:25:56.286Z,30.60
2022-08-14T14:28:34.473Z,30.60
2022-08-14T14:31:08.205Z,30.60
2022-08-14T14:33:48.694Z,30.90
2022-08-14T14:36:26.676Z,30.90
2022-08-14T14:39:01.355Z,30.90
2022-08-14T14:41:37.664Z,30.90
2022-08-14T14:44:16.630Z,30.80
2022-08-14T14:46:53.056Z,30.80
2022-08-14T14:49:41.822Z,30.80
2022-08-14T14:52:27.893Z,31.10
2022-08-14T14:55:12.545Z,30.90
2022-08-14T14:57:52.223Z,31.00
2022-08-14T15:00:25.470Z,31.10
2022-08-14T15:03:01.534Z,31.10
2022-08-14T15:05:34.634Z,31.10
2022-08-14T15:08:05.249Z,31.00
2022-08-14T15:10:40.072Z,31.00
2022-08-14T15:13:10.667Z,30.90
2022-08-14T15:15:41.421Z,30.90
2022-08-14T15:18:36.888Z,30.90
2022-08-14T15:21:05.581Z,30.90
2022-08-14T15:23:44.633Z,30.90
2022-08-14T15:26:24.388Z,30.80
2022-08-14T15:29:07.320Z,30.70
2022-08-14T15:31:39.794Z,30.70
2022-08-14T15:34:45.928Z,30.60
2022-08-14T15:37:13.115Z,30.50
2022-08-14T15:39:47.185Z,30.40
2022-08-14T15:42:18.801Z,30.50
2022-08-14T15:44:57.998Z,30.50
2022-08-14T15:47:32.724Z,30.50
2022-08-14T15:50:08.929Z,30.40
2022-08-14T15:52:44.822Z,30.50
2022-08-14T15:55:17.822Z,30.40
2022-08-14T15:58:02.045Z,30.40
2022-08-14T16:00:49.253Z,30.30
2022-08-14T16:03:27.180Z,30.30
2022-08-14T16:06:11.175Z,30.20
2022-08-14T16:08:58.863Z,30.30
2022-08-14T16:11:32.862Z,30.30
2022-08-14T16:14:06.757Z,30.20
2022-08-14T16:16:51.496Z,30.20
2022-08-14T16:19:31.260Z,30.20
2022-08-14T16:22:58.520Z,30.10
2022-08-14T16:25:02.918Z,30.20
2022-08-14T16:27:38.738Z,30.20
2022-08-14T16:30:20.770Z,30.20
2022-08-14T16:32:56.735Z,30.30
2022-08-14T16:35:41.861Z,30.30
2022-08-14T16:38:19.646Z,30.30
2022-08-14T16:41:22.083Z,30.20
2022-08-14T16:43:59.200Z,30.10
2022-08-14T16:46:34.907Z,30.10
2022-08-14T16:49:07.462Z,30.00
2022-08-14T16:51:39.952Z,30.00
2022-08-14T16:54:21.015Z,30.00
2022-08-14T16:57:24.590Z,29.90
2022-08-14T17:00:00.056Z,29.90
2022-08-14T17:02:39.950Z,29.80
2022-08-14T17:05:22.423Z,29.80
2022-08-14T17:08:41.621Z,29.80
2022-08-14T17:11:11.031Z,29.70
2022-08-14T17:14:00.780Z,29.70
2022-08-14T17:16:37.922Z,29.70
2022-08-14T17:19:14.119Z,29.60
2022-08-14T17:21:48.275Z,29.60
2022-08-14T17:24:51.421Z,29.50
2022-08-14T17:27:18.307Z,29.40
2022-08-14T17:29:57.735Z,29.40
2022-08-14T17:32:56.715Z,29.40
2022-08-14T17:35:57.858Z,29.40
2022-08-14T17:38:39.093Z,29.40
2022-08-14T17:41:32.947Z,29.40
2022-08-14T17:44:34.191Z,29.30
2022-08-14T17:47:17.971Z,29.30
2022-08-14T17:49:53.823Z,29.30
2022-08-14T17:52:34.713Z,29.20
2022-08-14T17:56:00.912Z,29.10
2022-08-14T17:58:20.738Z,29.10
2022-08-14T18:00:57.519Z,29.00
2022-08-14T18:03:49.859Z,28.90
2022-08-14T18:06:39.104Z,28.80
2022-08-14T18:09:25.347Z,28.70
2022-08-14T18:12:03.543Z,28.60
2022-08-14T18:14:48.815Z,28.60
2022-08-14T18:17:23.842Z,28.50
2022-08-14T18:19:56.583Z,28.40
2022-08-14T18:22:37.806Z,28.30
2022-08-14T18:25:18.275Z,28.30
2022-08-14T18:27:52.850Z,28.20
2022-08-14T18:30:33.336Z,28.20
2022-08-14T18:33:22.635Z,28.10
2022-08-14T18:36:47.684Z,28.10
2022-08-14T18:38:59.938Z,28.10
2022-08-14T18:41:37.284Z,28.00
2022-08-14T18:44:10.622Z,28.00
2022-08-14T18:47:23.561Z,27.90
2022-08-14T18:50:26.248Z,27.80
2022-08-14T18:53:11.036Z,27.80
2022-08-14T18:55:55.091Z,27.80
2022-08-14T18:58:31.539Z,27.60
2022-08-14T19:01:06.597Z,27.60
2022-08-14T19:03:59.202Z,27.60
2022-08-14T19:06:56.393Z,27.60
2022-08-14T19:09:59.503Z,27.50
2022-08-14T19:13:12.003Z,27.50
2022-08-14T19:15:45.479Z,27.40
2022-08-14T19:18:29.741Z,27.40
2022-08-14T19:21:03.105Z,27.40
2022-08-14T19:23:59.616Z,27.40
2022-08-14T19:26:36.374Z,27.30
2022-08-14T19:29:36.277Z,27.20
2022-08-14T19:32:40.199Z,27.20
2022-08-14T19:35:59.883Z,27.10
2022-08-14T19:38:57.424Z,27.00
2022-08-14T19:41:34.596Z,26.90
2022-08-14T19:44:15.290Z,26.90
2022-08-14T19:47:01.793Z,26.80
2022-08-14T19:50:25.041Z,26.80
2022-08-14T19:52:39.910Z,26.80
2022-08-14T19:55:19.414Z,26.80
2022-08-14T19:57:58.653Z,26.70
2022-08-14T20:00:30.668Z,26.70
2022-08-14T20:03:10.455Z,26.70
2022-08-14T20:05:46.427Z,26.60
2022-08-14T20:11:07.164Z,26.60
2022-08-14T20:12:00.722Z,26.50
2022-08-14T20:14:22.968Z,26.50
2022-08-14T20:17:06.173Z,26.40
2022-08-14T20:19:41.464Z,26.40
2022-08-14T20:22:36.444Z,26.30
2022-08-14T20:25:16.402Z,26.30
2022-08-14T20:27:58.743Z,26.20
2022-08-14T20:30:33.850Z,26.10
2022-08-14T20:33:10.863Z,26.00
2022-08-14T20:35:49.335Z,26.00
2022-08-14T20:38:29.115Z,25.90
2022-08-14T20:41:05.730Z,25.90
2022-08-14T20:43:53.440Z,25.90
2022-08-14T20:46:30.355Z,25.90
2022-08-14T20:49:04.841Z,25.90
2022-08-14T20:51:47.477Z,25.90
2022-08-14T20:54:34.170Z,25.80
2022-08-14T20:57:13.889Z,25.70
2022-08-14T20:59:48.889Z,25.70
2022-08-14T21:02:46.401Z,25.70
2022-08-14T21:05:34.047Z,25.70
2022-08-14T21:08:07.841Z,25.60
2022-08-14T21:10:44.089Z,25.50
2022-08-14T21:13:55.875Z,25.50
2022-08-14T21:16:32.918Z,25.40
2022-08-14T21:19:03.918Z,25.40
2022-08-14T21:21:41.788Z,25.30
2022-08-14T21:24:38.441Z,25.30
2022-08-14T21:27:12.696Z,25.20
2022-08-14T21:29:54.373Z,25.20
2022-08-14T21:32:47.029Z,25.10
2022-08-14T21:35:24.589Z,25.10
2022-08-14T21:37:55.711Z,25.10
2022-08-14T21:40:41.776Z,25.00
2022-08-14T21:43:18.298Z,25.00
2022-08-14T21:45:54.265Z,25.00
2022-08-14T21:48:29.551Z,25.00
2022-08-14T21:51:55.566Z,24.90
2022-08-14T21:54:01.367Z,24.80
2022-08-14T21:56:39.591Z,24.80
2022-08-14T21:59:17.506Z,24.70
2022-08-14T22:02:00.231Z,24.60
2022-08-14T22:04:40.073Z,24.50
2022-08-14T22:07:18.194Z,24.40
2022-08-14T22:09:55.148Z,24.40
2022-08-14T22:12:58.216Z,24.30
2022-08-14T22:15:23.061Z,24.30
2022-08-14T22:17:54.540Z,24.20
2022-08-14T22:20:28.762Z,24.00
2022-08-14T22:23:05.936Z,24.10
2022-08-14T22:25:41.018Z,24.10
2022-08-14T22:28:18.044Z,24.00
2022-08-14T22:30:54.641Z,24.00
2022-08-14T22:33:30.865Z,23.90
2022-08-14T22:36:25.142Z,23.80
2022-08-14T22:38:59.818Z,23.70
2022-08-14T22:41:42.249Z,23.70
2022-08-14T22:44:17.979Z,23.60
2022-08-14T22:46:48.957Z,23.60
2022-08-14T22:50:32.235Z,23.60
2022-08-14T22:52:32.609Z,23.60
2022-08-14T22:55:08.127Z,23.50
2022-08-14T22:57:43.549Z,23.40
2022-08-14T23:00:25.431Z,23.40
2022-08-14T23:03:05.477Z,23.40
2022-08-14T23:05:39.649Z,23.40
2022-08-14T23:08:59.614Z,23.20
2022-08-14T23:11:15.559Z,23.30
2022-08-14T23:13:46.526Z,23.10
2022-08-14T23:16:20.064Z,23.10
2022-08-14T23:18:53.653Z,23.00
2022-08-14T23:21:28.866Z,23.00
2022-08-14T23:24:03.075Z,23.00
2022-08-14T23:26:47.701Z,23.00
2022-08-14T23:29:22.700Z,22.90
2022-08-14T23:31:53.440Z,22.80
2022-08-14T23:34:25.921Z,22.80
2022-08-14T23:37:03.604Z,22.80
2022-08-14T23:39:36.209Z,22.70
2022-08-14T23:42:17.997Z,22.70
2022-08-14T23:44:49.637Z,22.60
2022-08-14T23:47:27.849Z,22.50
2022-08-14T23:50:04.179Z,22.50
2022-08-14T23:53:05.975Z,22.40
2022-08-14T23:55:34.925Z,22.40
2022-08-14T23:58:07.956Z,22.30
